< < Back
Terminal Aerodrome Forecast


Current Version              Previous Versions:   1  2  3  4  5  6  7  8  9  

Terminal Aerodrome Forecast

827
FTUS42 KGSP 301130
TAFGSP
TAF
KGSP 301130Z 3012/3112 24003KT P6SM VCSH FEW100 SCT250
     FM301800 23006KT P6SM VCTS SCT060CB PROB30 3021/3024 4SM -TSRA
      BKN050CB
     FM310200 21003KT P6SM FEW080 SCT150=

Latest METAR

651
SAUS70 KWBC 301300 RRK
MTRGSP
METAR KGSP 301253Z 00000KT 10SM OVC080 25/22 A3002 RMK AO2 SLP154
T02500217


USA.gov is the U.S. government's official web portal to all federal, state and local government web resources and services.